createdAt,value
2019-04-23T00:02:53.508Z,95451.50
2019-04-23T00:05:29.055Z,95464.20
2019-04-23T00:07:56.204Z,95454.48
2019-04-23T00:10:28.649Z,95455.71
2019-04-23T00:13:02.314Z,95468.66
2019-04-23T00:16:17.084Z,95464.98
2019-04-23T00:18:46.467Z,95475.92
2019-04-23T00:21:26.661Z,95474.92
2019-04-23T00:24:15.839Z,95475.59
2019-04-23T00:29:26.366Z,95493.00
2019-04-23T00:31:38.889Z,95490.36
2019-04-23T00:34:10.894Z,95487.65
2019-04-23T00:36:48.405Z,95516.41
2019-04-23T00:39:18.689Z,95496.58
2019-04-23T00:41:52.896Z,95504.70
2019-04-23T00:44:22.842Z,95508.72
2019-04-23T00:46:54.666Z,95510.29
2019-04-23T00:49:32.680Z,95500.70
2019-04-23T00:52:09.417Z,95512.64
2019-04-23T00:54:41.107Z,95507.38
2019-04-23T00:57:21.805Z,95525.80
2019-04-23T00:59:53.719Z,95519.84
2019-04-23T01:02:16.638Z,95535.41
2019-04-23T01:04:55.900Z,95543.20
2019-04-23T01:07:24.637Z,95539.90
2019-04-23T01:10:10.143Z,95543.81
2019-04-23T01:17:51.058Z,95552.77
2019-04-23T01:20:31.875Z,95551.86
2019-04-23T01:22:40.181Z,95560.41
2019-04-23T01:25:45.703Z,95559.39
2019-04-23T01:28:36.720Z,95570.35
2019-04-23T01:31:08.877Z,95573.02
2019-04-23T01:33:47.216Z,95571.39
2019-04-23T01:36:23.362Z,95571.28
2019-04-23T01:38:56.029Z,95566.86
2019-04-23T01:41:19.883Z,95567.20
2019-04-23T01:43:50.602Z,95571.69
2019-04-23T01:46:29.207Z,95575.77
2019-04-23T01:48:58.357Z,95577.84
2019-04-23T01:51:39.895Z,95574.99
2019-04-23T01:54:06.749Z,95576.63
2019-04-23T01:56:33.484Z,95574.39
2019-04-23T01:59:12.660Z,95572.03
2019-04-23T02:01:51.950Z,95577.12
2019-04-23T02:04:25.011Z,95567.82
2019-04-23T02:06:55.974Z,95566.55
2019-04-23T02:09:30.216Z,95564.23
2019-04-23T02:11:59.064Z,95559.37
2019-04-23T02:14:34.814Z,95550.98
2019-04-23T02:17:13.964Z,95549.58
2019-04-23T02:22:25.012Z,95557.56
2019-04-23T02:24:59.390Z,95558.17
2019-04-23T02:27:39.576Z,95557.70
2019-04-23T02:30:15.776Z,95566.66
2019-04-23T02:32:47.555Z,95555.77
2019-04-23T02:35:17.296Z,95554.84
2019-04-23T02:37:53.713Z,95553.14
2019-04-23T02:40:23.375Z,95557.41
2019-04-23T02:43:08.491Z,95556.69
2019-04-23T02:45:27.416Z,95562.23
2019-04-23T02:50:39.745Z,95567.53
2019-04-23T02:53:14.715Z,95563.50
2019-04-23T02:55:50.465Z,95567.53
2019-04-23T02:58:31.668Z,95565.52
2019-04-23T03:01:06.507Z,95566.10
2019-04-23T03:08:36.274Z,95572.55
2019-04-23T03:16:38.081Z,95580.88
2019-04-23T03:19:35.832Z,95586.77
2019-04-23T03:22:44.628Z,95583.63
2019-04-23T03:25:06.996Z,95584.33
2019-04-23T03:30:15.734Z,95586.47
2019-04-23T03:33:39.157Z,95594.04
2019-04-23T03:35:09.564Z,95599.80
2019-04-23T03:37:48.932Z,95604.80
2019-04-23T03:40:13.740Z,95608.23
2019-04-23T03:43:02.401Z,95611.88
2019-04-23T03:45:40.705Z,95614.95
2019-04-23T03:48:06.021Z,95611.06
2019-04-23T03:53:03.454Z,95619.33
2019-04-23T03:55:45.351Z,95613.45
2019-04-23T03:58:24.774Z,95616.86
2019-04-23T04:01:00.983Z,95617.09
2019-04-23T04:06:05.394Z,95627.22
2019-04-23T04:08:25.744Z,95626.05
2019-04-23T04:16:11.945Z,95649.30
2019-04-23T04:18:44.372Z,95647.74
2019-04-23T04:21:36.879Z,95646.66
2019-04-23T04:24:20.336Z,95644.86
2019-04-23T04:29:03.693Z,95649.66
2019-04-23T04:39:02.525Z,95654.21
2019-04-23T04:41:55.541Z,95654.21
2019-04-23T04:44:38.307Z,95661.24
2019-04-23T04:49:38.341Z,95667.39
2019-04-23T04:57:02.620Z,95672.98
2019-04-23T04:59:40.023Z,95674.09
2019-04-23T05:02:14.488Z,95674.91
2019-04-23T05:04:53.093Z,95682.58
2019-04-23T05:07:21.727Z,95672.48
2019-04-23T05:12:23.684Z,95677.09
2019-04-23T05:17:51.851Z,95675.20
2019-04-23T05:23:02.761Z,95670.92
2019-04-23T05:25:17.435Z,95663.91
2019-04-23T05:28:02.889Z,95664.83
2019-04-23T05:30:31.726Z,95662.94
2019-04-23T05:33:05.964Z,95667.39
2019-04-23T05:38:18.633Z,95664.55
2019-04-23T05:40:49.935Z,95669.22
2019-04-23T05:43:13.042Z,95681.38
2019-04-23T05:45:49.656Z,95683.14
2019-04-23T05:48:31.132Z,95691.67
2019-04-23T05:51:00.834Z,95691.34
2019-04-23T05:53:27.809Z,95689.58
2019-04-23T05:56:01.785Z,95684.72
2019-04-23T05:58:36.900Z,95686.05
2019-04-23T06:01:42.649Z,95677.98
2019-04-23T06:03:57.702Z,95684.93
2019-04-23T06:06:37.795Z,95692.00
2019-04-23T06:08:58.669Z,95697.18
2019-04-23T06:11:45.573Z,95698.27
2019-04-23T06:16:44.602Z,95694.11
2019-04-23T06:19:12.882Z,95701.55
2019-04-23T06:24:26.111Z,95714.81
2019-04-23T06:27:01.727Z,95699.22
2019-04-23T06:29:32.179Z,95699.22
2019-04-23T06:31:54.044Z,95692.59
2019-04-23T06:34:36.409Z,95681.45
2019-04-23T06:37:02.183Z,95684.83
2019-04-23T06:42:23.448Z,95703.49
2019-04-23T06:44:53.518Z,95699.02
2019-04-23T06:47:21.905Z,95704.90
2019-04-23T06:49:56.002Z,95704.27
2019-04-23T06:52:41.857Z,95710.66
2019-04-23T06:57:37.104Z,95722.06
2019-04-23T07:00:29.563Z,95719.95
2019-04-23T07:02:44.433Z,95713.38
2019-04-23T07:05:15.808Z,95706.16
2019-04-23T07:07:54.823Z,95702.12
2019-04-23T07:10:24.955Z,95726.59
2019-04-23T07:12:59.370Z,95739.53
2019-04-23T07:15:42.394Z,95740.27
2019-04-23T07:18:03.841Z,95741.06
2019-04-23T07:20:36.093Z,95731.84
2019-04-23T07:23:14.145Z,95739.88
2019-04-23T07:25:40.386Z,95744.79
2019-04-23T07:28:23.493Z,95746.91
2019-04-23T07:30:55.908Z,95733.56
2019-04-23T07:33:29.863Z,95730.98
2019-04-23T07:36:00.274Z,95727.69
2019-04-23T07:42:09.456Z,95716.97
2019-04-23T07:44:49.629Z,95716.89
2019-04-23T07:47:32.092Z,95709.45
2019-04-23T07:50:09.909Z,95706.91
2019-04-23T07:52:47.943Z,95699.02
2019-04-23T07:55:16.310Z,95698.44
2019-04-23T07:57:40.093Z,95712.95
2019-04-23T08:00:07.628Z,95706.23
2019-04-23T08:02:44.091Z,95689.55
2019-04-23T08:07:54.138Z,95703.52
2019-04-23T08:10:29.783Z,95714.70
2019-04-23T08:13:00.930Z,95738.09
2019-04-23T08:18:06.950Z,95737.12
2019-04-23T08:20:47.435Z,95735.26
2019-04-23T08:23:17.822Z,95739.63
2019-04-23T08:26:22.555Z,95727.84
2019-04-23T08:28:58.475Z,95727.75
2019-04-23T08:31:27.057Z,95720.92
2019-04-23T08:33:58.865Z,95742.51
2019-04-23T08:36:27.894Z,95745.11
2019-04-23T08:38:56.928Z,95746.02
2019-04-23T08:41:46.233Z,95739.09
2019-04-23T08:44:15.619Z,95728.92
2019-04-23T08:46:56.762Z,95733.19
2019-04-23T08:49:29.342Z,95746.89
2019-04-23T08:52:00.605Z,95741.91
2019-04-23T08:54:42.893Z,95735.98
2019-04-23T08:59:47.361Z,95750.38
2019-04-23T09:04:49.602Z,95736.12
2019-04-23T09:07:29.347Z,95733.55
2019-04-23T09:09:56.862Z,95740.61
2019-04-23T09:12:28.597Z,95750.53
2019-04-23T09:15:01.854Z,95744.18
2019-04-23T09:17:34.609Z,95747.00
2019-04-23T09:20:18.533Z,95750.33
2019-04-23T09:22:36.472Z,95738.14
2019-04-23T09:25:11.668Z,95737.33
2019-04-23T09:27:42.366Z,95748.67
2019-04-23T09:30:13.309Z,95744.05
2019-04-23T09:32:51.593Z,95740.03
2019-04-23T09:35:48.451Z,95725.27
2019-04-23T09:38:38.241Z,95733.98
2019-04-23T09:41:29.952Z,95733.98
2019-04-23T09:49:39.534Z,95743.07
2019-04-23T09:52:14.681Z,95738.27
2019-04-23T09:55:04.750Z,95741.41
2019-04-23T09:57:20.447Z,95738.47
2019-04-23T09:59:52.909Z,95735.41
2019-04-23T10:02:14.694Z,95746.63
2019-04-23T10:04:50.602Z,95746.14
2019-04-23T10:07:21.144Z,95733.30
2019-04-23T10:09:40.517Z,95730.81
2019-04-23T10:12:14.642Z,95739.41
2019-04-23T10:14:59.348Z,95736.11
2019-04-23T10:17:20.183Z,95721.67
2019-04-23T10:19:53.043Z,95725.75
2019-04-23T10:22:25.143Z,95714.96
2019-04-23T10:24:57.184Z,95715.69
2019-04-23T10:27:29.446Z,95697.63
2019-04-23T10:30:01.734Z,95695.39
2019-04-23T10:32:35.836Z,95706.12
2019-04-23T10:35:21.038Z,95701.63
2019-04-23T10:37:52.220Z,95707.89
2019-04-23T10:40:23.917Z,95705.73
2019-04-23T10:42:52.288Z,95716.81
2019-04-23T10:45:53.163Z,95707.30
2019-04-23T10:49:00.718Z,95701.95
2019-04-23T10:51:33.885Z,95707.44
2019-04-23T10:54:23.950Z,95699.50
2019-04-23T10:59:35.449Z,95703.80
2019-04-23T11:02:24.086Z,95710.28
2019-04-23T11:12:44.872Z,95703.07
2019-04-23T11:15:34.816Z,95704.86
2019-04-23T11:17:54.890Z,95702.02
2019-04-23T11:20:35.416Z,95685.19
2019-04-23T11:28:16.225Z,95691.35
2019-04-23T11:30:45.061Z,95697.38
2019-04-23T11:33:31.635Z,95700.05
2019-04-23T11:36:33.393Z,95699.63
2019-04-23T11:38:51.209Z,95691.52
2019-04-23T11:41:09.656Z,95680.99
2019-04-23T11:43:38.050Z,95682.93
2019-04-23T11:49:10.210Z,95670.73
2019-04-23T11:53:58.060Z,95670.03
2019-04-23T11:59:29.713Z,95658.63
2019-04-23T12:04:48.017Z,95648.31
2019-04-23T12:07:34.763Z,95640.84
2019-04-23T12:10:17.211Z,95649.83
2019-04-23T12:12:39.670Z,95658.32
2019-04-23T12:15:18.308Z,95673.77
2019-04-23T12:17:53.876Z,95671.59
2019-04-23T12:20:28.903Z,95681.64
2019-04-23T12:23:04.290Z,95679.45
2019-04-23T12:25:32.452Z,95675.67
2019-04-23T12:28:02.235Z,95661.14
2019-04-23T12:30:40.714Z,95656.55
2019-04-23T12:33:11.622Z,95641.37
2019-04-23T12:35:39.014Z,95644.54
2019-04-23T12:41:05.035Z,95635.27
2019-04-23T12:43:28.613Z,95636.64
2019-04-23T12:45:50.446Z,95636.17
2019-04-23T12:48:39.809Z,95637.11
2019-04-23T12:50:58.716Z,95633.75
2019-04-23T12:53:34.738Z,95649.66
2019-04-23T12:56:12.890Z,95650.29
2019-04-23T12:58:58.110Z,95640.53
2019-04-23T13:01:22.852Z,95646.88
2019-04-23T13:03:45.565Z,95635.47
2019-04-23T13:06:22.273Z,95653.77
2019-04-23T13:09:01.446Z,95642.63
2019-04-23T13:11:36.847Z,95615.73
2019-04-23T13:14:08.862Z,95625.16
2019-04-23T13:16:48.804Z,95638.61
2019-04-23T13:19:30.207Z,95643.86
2019-04-23T13:24:48.882Z,95613.58
2019-04-23T13:27:29.367Z,95640.55
2019-04-23T13:30:01.594Z,95635.42
2019-04-23T13:32:36.027Z,95622.05
2019-04-23T13:37:49.651Z,95622.12
2019-04-23T13:40:21.354Z,95628.72
2019-04-23T13:43:06.949Z,95627.92
2019-04-23T13:45:53.596Z,95612.95
2019-04-23T13:48:06.271Z,95618.72
2019-04-23T13:50:38.847Z,95616.78
2019-04-23T13:55:26.670Z,95596.30
2019-04-23T14:03:28.636Z,95592.18
2019-04-23T14:16:39.126Z,95549.58
2019-04-23T14:19:04.659Z,95560.20
2019-04-23T14:21:37.605Z,95562.56
2019-04-23T14:27:09.635Z,95559.61
2019-04-23T14:29:24.825Z,95566.73
2019-04-23T14:32:03.067Z,95558.30
2019-04-23T14:34:31.286Z,95578.70
2019-04-23T14:39:43.726Z,95557.34
2019-04-23T14:42:21.417Z,95559.55
2019-04-23T14:44:52.481Z,95548.86
2019-04-23T14:47:29.570Z,95529.64
2019-04-23T14:50:28.112Z,95558.10
2019-04-23T14:55:43.184Z,95561.34
2019-04-23T14:58:07.923Z,95559.81
2019-04-23T15:00:18.215Z,95562.98
2019-04-23T15:02:56.581Z,95557.28
2019-04-23T15:05:27.527Z,95569.50
2019-04-23T15:07:58.409Z,95564.89
2019-04-23T15:10:32.392Z,95545.43
2019-04-23T15:12:59.662Z,95538.17
2019-04-23T15:15:34.400Z,95527.55
2019-04-23T15:18:18.679Z,95510.86
2019-04-23T15:21:08.655Z,95531.28
2019-04-23T15:23:41.214Z,95534.50
2019-04-23T15:26:57.084Z,95538.12
2019-04-23T15:28:09.111Z,95537.66
2019-04-23T15:31:10.058Z,95548.83
2019-04-23T15:33:48.889Z,95558.80
2019-04-23T15:41:27.475Z,95578.30
2019-04-23T15:43:58.965Z,95584.00
2019-04-23T15:49:07.298Z,95618.31
2019-04-23T15:51:35.566Z,95608.17
2019-04-23T15:56:40.937Z,95625.20
2019-04-23T15:59:21.811Z,95621.75
2019-04-23T16:01:37.100Z,95632.44
2019-04-23T16:03:51.708Z,95633.82
2019-04-23T16:06:26.434Z,95650.17
2019-04-23T16:09:17.881Z,95652.48
2019-04-23T16:11:51.820Z,95640.97
2019-04-23T16:14:40.689Z,95657.25
2019-04-23T16:17:09.959Z,95636.91
2019-04-23T16:19:54.153Z,95638.48
2019-04-23T16:24:55.510Z,95632.03
2019-04-23T16:27:36.566Z,95634.90
2019-04-23T16:30:12.836Z,95614.66
2019-04-23T16:33:06.938Z,95618.42
2019-04-23T16:35:43.727Z,95609.55
2019-04-23T16:40:44.489Z,95629.91
2019-04-23T16:43:14.555Z,95631.55
2019-04-23T16:45:54.780Z,95635.95
2019-04-23T16:53:24.081Z,95630.09
2019-04-23T16:58:55.134Z,95631.39
2019-04-23T17:01:08.749Z,95631.20
2019-04-23T17:11:21.394Z,95618.80
2019-04-23T17:16:28.613Z,95614.33
2019-04-23T17:19:01.850Z,95608.00
2019-04-23T17:21:36.677Z,95633.00
2019-04-23T17:24:15.157Z,95640.00
2019-04-23T17:26:37.356Z,95641.64
2019-04-23T17:29:20.336Z,95641.25
2019-04-23T17:32:00.562Z,95631.77
2019-04-23T17:34:30.687Z,95635.56
2019-04-23T17:37:05.289Z,95637.34
2019-04-23T17:42:55.399Z,95609.33
2019-04-23T17:48:24.067Z,95599.16
2019-04-23T17:56:18.436Z,95603.70
2019-04-23T17:58:30.104Z,95611.45
2019-04-23T18:01:24.498Z,95602.81
2019-04-23T18:03:56.650Z,95617.23
2019-04-23T18:09:03.471Z,95608.73
2019-04-23T18:11:44.601Z,95614.25
2019-04-23T18:14:02.688Z,95600.61
2019-04-23T18:16:41.699Z,95600.55
2019-04-23T18:21:50.570Z,95614.14
2019-04-23T18:24:36.556Z,95602.19
2019-04-23T18:30:08.038Z,95608.58
2019-04-23T18:38:14.616Z,95608.91
2019-04-23T18:41:02.500Z,95600.77
2019-04-23T18:43:26.908Z,95615.72
2019-04-23T18:53:46.838Z,95608.87
2019-04-23T18:58:54.540Z,95587.59
2019-04-23T19:06:41.343Z,95620.24
2019-04-23T19:10:13.668Z,95624.48
2019-04-23T19:17:50.475Z,95637.75
2019-04-23T19:20:53.479Z,95615.44
2019-04-23T19:23:09.541Z,95623.19
2019-04-23T19:25:31.779Z,95622.66
2019-04-23T19:28:23.923Z,95625.94
2019-04-23T19:31:00.478Z,95622.59
2019-04-23T19:33:35.303Z,95612.16
2019-04-23T19:38:36.482Z,95601.29
2019-04-23T19:41:02.177Z,95598.56
2019-04-23T19:43:41.540Z,95583.88
2019-04-23T19:46:42.002Z,95580.50
2019-04-23T19:49:07.311Z,95574.05
2019-04-23T19:54:01.786Z,95584.70
2019-04-23T19:56:30.920Z,95580.09
2019-04-23T19:58:56.716Z,95583.11
2019-04-23T20:01:31.225Z,95584.62
2019-04-23T20:04:04.181Z,95586.49
2019-04-23T20:09:28.463Z,95592.78
2019-04-23T20:14:21.344Z,95602.33
2019-04-23T20:17:20.835Z,95614.61
2019-04-23T20:19:33.003Z,95616.19
2019-04-23T20:22:00.682Z,95620.38
2019-04-23T20:24:41.833Z,95621.12
2019-04-23T20:38:08.896Z,95636.27
2019-04-23T20:40:23.691Z,95640.91
2019-04-23T20:45:20.509Z,95642.04
2019-04-23T20:47:58.085Z,95645.84
2019-04-23T20:50:32.520Z,95643.59
2019-04-23T20:53:01.357Z,95644.16
2019-04-23T20:55:52.977Z,95649.73
2019-04-23T20:58:21.621Z,95662.83
2019-04-23T21:01:18.822Z,95663.25
2019-04-23T21:09:13.318Z,95675.80
2019-04-23T21:11:27.976Z,95670.05
2019-04-23T21:16:37.523Z,95680.81
2019-04-23T21:19:07.781Z,95680.65
2019-04-23T21:22:06.044Z,95689.43
2019-04-23T21:24:40.120Z,95688.36
2019-04-23T21:27:40.916Z,95689.38
2019-04-23T21:32:41.083Z,95677.00
2019-04-23T21:37:53.780Z,95658.75
2019-04-23T21:43:51.797Z,95680.00
2019-04-23T21:46:28.196Z,95689.52
2019-04-23T21:48:53.069Z,95683.86
2019-04-23T21:51:22.843Z,95683.05
2019-04-23T21:53:46.427Z,95690.13
2019-04-23T21:58:57.910Z,95680.95
2019-04-23T22:01:34.605Z,95677.16
2019-04-23T22:06:35.798Z,95679.52
2019-04-23T22:09:22.611Z,95669.57
2019-04-23T22:24:19.480Z,95678.23
2019-04-23T22:26:57.579Z,95679.88
2019-04-23T22:29:33.449Z,95679.45
2019-04-23T22:31:53.832Z,95687.45
2019-04-23T22:39:45.918Z,95673.80
2019-04-23T22:42:36.676Z,95672.94
2019-04-23T22:45:10.676Z,95668.78
2019-04-23T22:47:28.081Z,95663.19
2019-04-23T22:50:05.905Z,95657.31
2019-04-23T22:55:07.312Z,95651.52
2019-04-23T22:58:04.410Z,95627.91
2019-04-23T23:08:34.655Z,95650.17
2019-04-23T23:11:03.458Z,95659.53
2019-04-23T23:16:07.172Z,95653.94
2019-04-23T23:18:44.009Z,95652.48
2019-04-23T23:21:19.906Z,95645.97
2019-04-23T23:23:52.975Z,95639.37
2019-04-23T23:26:21.983Z,95635.80
2019-04-23T23:28:55.017Z,95637.79
2019-04-23T23:31:31.363Z,95630.78
2019-04-23T23:34:04.392Z,95623.66
2019-04-23T23:36:38.619Z,95618.98
2019-04-23T23:39:16.020Z,95629.64
2019-04-23T23:41:52.095Z,95626.09
2019-04-23T23:46:56.524Z,95632.17
2019-04-23T23:52:03.507Z,95616.80
2019-04-23T23:54:17.667Z,95594.59
2019-04-23T23:57:09.162Z,95609.86
